Brackettville, Texas
Current Conditions -  °F | °C
As of 7:58 AM on Tuesday 27 Jan 2015 (Local Time) from KDLF Reporting Station
Clear Clear  
Wind Chill: 36°   Ceiling: Unl
Heat Index: 40°   Visibility: 10mi
Dew Point: 37°   Wind: 6mph
Humidity: 89%   Direction: 360°N
Pressure: 30.23"   Gusts: NA
Location:  29.31°N, 100.42°W
Report Text: KDLF 271358Z AUTO 36005KT 10SM CLR 05/03 A3023 RMK AO2 SLP236 T00460030 $
Loading
Personal Weather Stations






























Interactive Weather Map New forecast layout! Learn more

10-Day Weather Forecast

Advertisements
Track Severe Weather on mobile